createdAt,value
2023-03-21T00:00:36.718Z,11.75
2023-03-21T00:03:19.310Z,17.77
2023-03-21T00:05:49.948Z,38.88
2023-03-21T00:08:17.213Z,48.25
2023-03-21T00:10:44.931Z,46.15
2023-03-21T00:13:13.350Z,32.47
2023-03-21T00:16:09.519Z,57.67
2023-03-21T00:18:42.528Z,36.80
2023-03-21T00:21:41.013Z,28.30
2023-03-21T00:24:02.886Z,29.05
2023-03-21T00:26:31.661Z,45.65
2023-03-21T00:28:58.629Z,30.85
2023-03-21T00:31:26.004Z,26.50
2023-03-21T00:34:01.152Z,26.98
2023-03-21T00:36:28.908Z,15.43
2023-03-21T00:38:55.960Z,18.35
2023-03-21T00:41:41.878Z,20.30
2023-03-21T00:44:13.744Z,22.17
2023-03-21T00:46:51.669Z,20.00
2023-03-21T00:49:24.230Z,26.65
2023-03-21T00:51:51.884Z,19.05
2023-03-21T00:54:19.603Z,37.90
2023-03-21T00:56:46.914Z,36.08
2023-03-21T00:59:14.052Z,37.28
2023-03-21T01:01:41.361Z,25.90
2023-03-21T01:04:13.563Z,27.33
2023-03-21T01:06:43.344Z,39.35
2023-03-21T01:09:17.125Z,24.90
2023-03-21T01:11:45.555Z,28.17
2023-03-21T01:14:22.570Z,35.88
2023-03-21T01:16:57.205Z,32.45
2023-03-21T01:19:44.721Z,29.85
2023-03-21T01:22:17.959Z,34.03
2023-03-21T01:24:53.158Z,41.60
2023-03-21T01:27:24.205Z,72.07
2023-03-21T01:29:51.619Z,47.67
2023-03-21T01:32:18.897Z,38.60
2023-03-21T01:34:46.137Z,42.30
2023-03-21T01:37:14.714Z,24.05
2023-03-21T01:39:47.731Z,22.27
2023-03-21T01:42:15.561Z,25.73
2023-03-21T01:45:01.103Z,23.40
2023-03-21T01:47:44.130Z,172.32
2023-03-21T01:50:22.629Z,133.02
2023-03-21T01:53:30.183Z,53.35
2023-03-21T01:56:19.072Z,38.95
2023-03-21T02:01:44.831Z,16.88
2023-03-21T02:04:12.890Z,20.45
2023-03-21T02:07:02.504Z,17.90
2023-03-21T02:09:40.226Z,13.25
2023-03-21T02:12:13.152Z,12.50
2023-03-21T02:14:40.681Z,12.40
2023-03-21T02:17:27.137Z,14.18
2023-03-21T02:20:08.743Z,44.58
2023-03-21T02:23:13.927Z,39.20
2023-03-21T02:26:06.714Z,25.98
2023-03-21T02:28:42.033Z,22.05
2023-03-21T02:31:32.512Z,22.90
2023-03-21T02:34:20.942Z,22.10
2023-03-21T02:36:48.334Z,17.05
2023-03-21T02:39:28.449Z,14.85
2023-03-21T02:42:42.058Z,15.82
2023-03-21T02:45:17.544Z,14.50
2023-03-21T02:47:59.871Z,10.02
2023-03-21T02:50:38.401Z,13.93
2023-03-21T02:53:09.636Z,24.25
2023-03-21T02:55:38.534Z,16.38
2023-03-21T02:58:13.655Z,19.40
2023-03-21T03:00:56.267Z,46.30
2023-03-21T03:03:39.470Z,34.05
2023-03-21T03:06:24.260Z,25.00
2023-03-21T03:09:12.153Z,17.38
2023-03-21T03:11:44.613Z,14.55
2023-03-21T03:14:56.541Z,13.43
2023-03-21T03:17:43.528Z,13.48
2023-03-21T03:20:17.458Z,22.13
2023-03-21T03:23:05.696Z,20.42
2023-03-21T03:26:03.030Z,20.42
2023-03-21T03:28:36.599Z,27.48
2023-03-21T03:31:14.415Z,34.53
2023-03-21T03:33:52.609Z,21.80
2023-03-21T03:36:31.995Z,16.42
2023-03-21T03:39:09.023Z,16.77
2023-03-21T03:42:15.364Z,12.77
2023-03-21T03:44:57.404Z,15.88
2023-03-21T03:47:41.849Z,11.95
2023-03-21T03:50:31.577Z,15.68
2023-03-21T03:53:25.550Z,12.10
2023-03-21T03:55:55.833Z,11.65
2023-03-21T03:58:36.172Z,15.23
2023-03-21T04:01:10.899Z,15.15
2023-03-21T04:03:49.473Z,12.63
2023-03-21T04:06:19.226Z,12.70
2023-03-21T04:08:48.199Z,18.80
2023-03-21T04:11:16.407Z,16.65
2023-03-21T04:13:48.518Z,13.85
2023-03-21T04:16:21.435Z,13.45
2023-03-21T04:18:49.432Z,39.72
2023-03-21T04:21:19.138Z,22.38
2023-03-21T04:23:46.485Z,35.25
2023-03-21T04:26:13.961Z,27.25
2023-03-21T04:28:54.547Z,48.38
2023-03-21T04:31:27.344Z,62.33
2023-03-21T04:34:09.906Z,64.13
2023-03-21T04:36:39.506Z,89.47
2023-03-21T04:39:12.609Z,52.30
2023-03-21T04:41:42.270Z,114.60
2023-03-21T04:44:11.767Z,54.38
2023-03-21T04:46:39.776Z,55.60
2023-03-21T04:49:08.753Z,67.43
2023-03-21T04:51:36.920Z,78.25
2023-03-21T04:56:36.163Z,33.85
2023-03-21T04:59:14.374Z,31.38
2023-03-21T05:01:43.652Z,20.02
2023-03-21T05:04:13.244Z,21.52
2023-03-21T05:06:42.640Z,17.88
2023-03-21T05:09:10.430Z,19.33
2023-03-21T05:11:42.142Z,19.08
2023-03-21T05:14:15.596Z,18.03
2023-03-21T05:16:48.575Z,23.55
2023-03-21T05:19:18.599Z,24.40
2023-03-21T05:21:47.274Z,23.02
2023-03-21T05:24:22.440Z,20.55
2023-03-21T05:26:50.896Z,17.45
2023-03-21T05:29:20.459Z,15.68
2023-03-21T05:31:53.879Z,17.10
2023-03-21T05:34:21.974Z,19.50
2023-03-21T05:36:49.721Z,17.27
2023-03-21T05:39:18.360Z,52.33
2023-03-21T05:41:57.331Z,108.55
2023-03-21T05:44:25.385Z,64.95
2023-03-21T05:46:52.688Z,40.47
2023-03-21T05:49:24.560Z,51.03
2023-03-21T05:51:56.019Z,63.30
2023-03-21T05:54:24.860Z,27.85
2023-03-21T05:56:52.194Z,28.30
2023-03-21T05:59:48.581Z,17.70
2023-03-21T06:02:17.440Z,33.40
2023-03-21T06:04:46.748Z,32.80
2023-03-21T06:07:13.772Z,22.15
2023-03-21T06:09:41.925Z,26.17
2023-03-21T06:12:08.994Z,29.98
2023-03-21T06:14:43.388Z,23.90
2023-03-21T06:17:18.356Z,27.90
2023-03-21T06:19:53.862Z,27.98
2023-03-21T06:22:26.701Z,32.25
2023-03-21T06:24:56.780Z,39.20
2023-03-21T06:27:24.332Z,34.95
2023-03-21T06:29:54.712Z,35.33
2023-03-21T06:32:24.290Z,61.60
2023-03-21T06:34:57.162Z,54.38
2023-03-21T06:37:26.619Z,37.80
2023-03-21T06:39:56.927Z,33.65
2023-03-21T06:42:24.746Z,27.83
2023-03-21T06:44:57.230Z,21.40
2023-03-21T06:47:24.287Z,23.45
2023-03-21T06:49:51.855Z,21.38
2023-03-21T06:52:19.008Z,21.70
2023-03-21T06:54:46.746Z,22.02
2023-03-21T06:57:17.969Z,18.40
2023-03-21T06:59:45.444Z,26.52
2023-03-21T07:02:21.121Z,21.05
2023-03-21T07:05:03.893Z,27.70
2023-03-21T07:07:31.589Z,21.13
2023-03-21T07:09:59.030Z,30.08
2023-03-21T07:12:34.049Z,33.47
2023-03-21T07:15:30.645Z,27.38
2023-03-21T07:17:59.891Z,41.47
2023-03-21T07:20:27.358Z,37.53
2023-03-21T07:22:54.486Z,42.75
2023-03-21T07:25:22.323Z,60.75
2023-03-21T07:27:50.695Z,120.63
2023-03-21T07:30:18.488Z,177.38
2023-03-21T07:32:45.656Z,40.30
2023-03-21T07:35:17.774Z,127.95
2023-03-21T07:37:44.849Z,41.40
2023-03-21T07:40:16.849Z,28.65
2023-03-21T07:42:44.214Z,22.02
2023-03-21T07:45:21.339Z,22.63
2023-03-21T07:50:17.250Z,36.67
2023-03-21T07:52:44.810Z,28.90
2023-03-21T07:55:12.595Z,26.80
2023-03-21T07:57:39.707Z,28.13
2023-03-21T08:00:08.014Z,24.45
2023-03-21T08:02:40.951Z,25.13
2023-03-21T08:05:11.496Z,27.75
2023-03-21T08:07:38.761Z,29.77
2023-03-21T08:10:06.874Z,30.75
2023-03-21T08:12:33.896Z,23.00
2023-03-21T08:15:01.475Z,23.40
2023-03-21T08:17:28.479Z,28.77
2023-03-21T08:19:55.833Z,34.40
2023-03-21T08:22:23.024Z,23.77
2023-03-21T08:24:50.328Z,32.35
2023-03-21T08:27:17.421Z,26.23
2023-03-21T08:29:44.889Z,21.70
2023-03-21T08:32:12.000Z,16.70
2023-03-21T08:34:39.270Z,18.77
2023-03-21T08:37:07.155Z,14.50
2023-03-21T08:39:34.564Z,12.93
2023-03-21T08:42:01.795Z,7.72
2023-03-21T08:44:31.381Z,11.35
2023-03-21T08:46:58.376Z,23.55
2023-03-21T08:49:26.995Z,8.98
2023-03-21T08:51:56.619Z,11.45
2023-03-21T08:54:24.473Z,7.75
2023-03-21T08:56:51.594Z,17.55
2023-03-21T08:59:19.015Z,8.15
2023-03-21T09:01:46.806Z,8.43
2023-03-21T09:04:14.332Z,8.10
2023-03-21T09:06:45.608Z,14.32
2023-03-21T09:09:13.151Z,9.65
2023-03-21T09:11:40.245Z,15.55
2023-03-21T09:14:07.607Z,25.95
2023-03-21T09:16:35.085Z,20.80
2023-03-21T09:19:03.348Z,12.95
2023-03-21T09:21:31.066Z,14.25
2023-03-21T09:23:59.999Z,11.27
2023-03-21T09:26:28.292Z,13.15
2023-03-21T09:28:56.547Z,9.50
2023-03-21T09:31:24.974Z,7.72
2023-03-21T09:33:54.032Z,9.52
2023-03-21T09:36:27.190Z,10.98
2023-03-21T09:38:56.839Z,11.80
2023-03-21T09:41:45.748Z,15.40
2023-03-21T09:44:25.534Z,14.18
2023-03-21T09:47:22.154Z,10.82
2023-03-21T09:50:15.127Z,15.57
2023-03-21T09:52:50.758Z,19.05
2023-03-21T09:55:25.735Z,13.33
2023-03-21T09:58:20.290Z,56.47
2023-03-21T10:00:53.658Z,11.93
2023-03-21T10:03:28.148Z,14.52
2023-03-21T10:05:58.873Z,9.13
2023-03-21T10:08:34.240Z,8.35
2023-03-21T10:11:18.004Z,9.63
2023-03-21T10:14:12.064Z,12.43
2023-03-21T10:16:47.110Z,9.77
2023-03-21T10:19:16.765Z,7.85
2023-03-21T10:22:04.404Z,26.55
2023-03-21T10:24:34.773Z,9.30
2023-03-21T10:27:03.594Z,9.35
2023-03-21T10:29:43.682Z,9.00
2023-03-21T10:32:15.324Z,9.05
2023-03-21T10:34:46.941Z,15.32
2023-03-21T10:37:14.777Z,10.07
2023-03-21T10:39:47.411Z,6.63
2023-03-21T10:42:23.877Z,8.05
2023-03-21T10:44:53.934Z,13.50
2023-03-21T10:47:24.877Z,20.10
2023-03-21T10:50:12.372Z,11.65
2023-03-21T10:52:49.469Z,7.38
2023-03-21T10:55:25.466Z,12.27
2023-03-21T10:58:00.119Z,9.98
2023-03-21T11:00:37.007Z,16.48
2023-03-21T11:03:06.217Z,10.25
2023-03-21T11:05:41.800Z,12.35
2023-03-21T11:08:16.669Z,8.73
2023-03-21T11:10:56.141Z,11.35
2023-03-21T11:13:34.084Z,23.27
2023-03-21T11:16:22.749Z,187.98
2023-03-21T11:18:52.266Z,9.73
2023-03-21T11:21:21.593Z,6.95
2023-03-21T11:23:52.034Z,11.75
2023-03-21T11:26:28.010Z,10.45
2023-03-21T11:28:56.017Z,11.48
2023-03-21T11:31:25.196Z,8.50
2023-03-21T11:33:57.153Z,9.25
2023-03-21T11:36:26.329Z,50.45
2023-03-21T11:39:27.840Z,11.23
2023-03-21T11:41:55.105Z,27.42
2023-03-21T11:44:35.006Z,36.13
2023-03-21T11:47:02.845Z,34.75
2023-03-21T11:49:34.540Z,55.95
2023-03-21T11:52:33.452Z,93.97
2023-03-21T11:55:29.713Z,19.00
2023-03-21T11:58:14.860Z,8.38
2023-03-21T12:00:42.458Z,15.68
2023-03-21T12:03:41.429Z,13.80
2023-03-21T12:06:46.804Z,6.28
2023-03-21T12:09:46.692Z,7.88
2023-03-21T12:12:39.695Z,70.38
2023-03-21T12:15:34.778Z,16.85
2023-03-21T12:18:31.066Z,19.30
2023-03-21T12:21:20.732Z,11.38
2023-03-21T12:23:56.445Z,11.63
2023-03-21T12:26:32.887Z,14.63
2023-03-21T12:29:32.817Z,13.40
2023-03-21T12:32:24.113Z,20.25
2023-03-21T12:35:10.513Z,52.58
2023-03-21T12:38:02.512Z,20.38
2023-03-21T12:41:02.808Z,27.23
2023-03-21T12:44:00.610Z,11.82
2023-03-21T12:46:33.593Z,13.80
2023-03-21T12:49:13.841Z,6.82
2023-03-21T12:51:46.469Z,9.23
2023-03-21T12:54:29.750Z,17.40
2023-03-21T12:57:08.779Z,17.85
2023-03-21T12:59:41.945Z,13.65
2023-03-21T13:02:38.045Z,12.73
2023-03-21T13:05:10.652Z,198.77
2023-03-21T13:07:41.930Z,361.45
2023-03-21T13:10:20.929Z,534.53
2023-03-21T13:13:07.786Z,231.45
2023-03-21T13:15:54.393Z,108.30
2023-03-21T13:18:54.696Z,125.32
2023-03-21T13:21:59.448Z,65.43
2023-03-21T13:24:32.848Z,191.65
2023-03-21T13:27:24.738Z,30.48
2023-03-21T13:30:01.156Z,28.20
2023-03-21T13:32:33.636Z,32.28
2023-03-21T13:35:13.581Z,22.25
2023-03-21T13:37:44.340Z,13.52
2023-03-21T13:40:27.259Z,26.70
2023-03-21T13:42:59.490Z,41.40
2023-03-21T13:45:52.374Z,6.38
2023-03-21T13:48:31.806Z,17.30
2023-03-21T13:51:04.060Z,13.45
2023-03-21T13:53:33.687Z,5.90
2023-03-21T13:56:17.313Z,9.30
2023-03-21T13:58:44.294Z,9.00
2023-03-21T14:01:42.261Z,6.55
2023-03-21T14:04:24.124Z,5.90
2023-03-21T14:07:05.235Z,9.40
2023-03-21T14:09:43.908Z,7.65
2023-03-21T14:12:16.174Z,8.15
2023-03-21T14:15:15.881Z,6.95
2023-03-21T14:18:00.005Z,17.55
2023-03-21T14:20:38.425Z,40.10
2023-03-21T14:23:09.067Z,11.07
2023-03-21T14:25:44.712Z,9.40
2023-03-21T14:28:32.814Z,24.70
2023-03-21T14:31:01.137Z,75.82
2023-03-21T14:33:28.495Z,28.17
2023-03-21T14:36:03.617Z,197.20
2023-03-21T14:38:36.819Z,45.05
2023-03-21T14:41:04.764Z,86.43
2023-03-21T14:43:35.670Z,28.75
2023-03-21T14:46:02.732Z,25.25
2023-03-21T14:48:32.775Z,31.80
2023-03-21T14:51:08.213Z,39.13
2023-03-21T14:53:41.241Z,61.83
2023-03-21T14:56:22.639Z,74.55
2023-03-21T14:58:50.553Z,81.93
2023-03-21T15:01:27.361Z,60.97
2023-03-21T15:03:55.208Z,46.63
2023-03-21T15:06:22.356Z,63.17
2023-03-21T15:09:01.576Z,127.40
2023-03-21T15:11:34.802Z,56.40
2023-03-21T15:14:08.791Z,89.68
2023-03-21T15:16:36.903Z,361.05
2023-03-21T15:19:05.316Z,152.73
2023-03-21T15:21:43.831Z,229.32
2023-03-21T15:24:17.124Z,134.05
2023-03-21T15:26:46.466Z,175.73
2023-03-21T15:29:16.297Z,102.60
2023-03-21T15:31:44.767Z,111.97
2023-03-21T15:34:24.630Z,248.23
2023-03-21T15:37:05.624Z,157.45
2023-03-21T15:39:36.247Z,89.07
2023-03-21T15:42:06.767Z,353.05
2023-03-21T15:44:35.811Z,124.82
2023-03-21T15:47:03.059Z,69.35
2023-03-21T15:49:40.255Z,33.35
2023-03-21T15:52:14.535Z,181.20
2023-03-21T15:54:56.167Z,128.43
2023-03-21T15:57:25.202Z,107.97
2023-03-21T16:00:15.082Z,175.43
2023-03-21T16:02:42.426Z,274.77
2023-03-21T16:05:29.200Z,219.80
2023-03-21T16:08:26.419Z,154.63
2023-03-21T16:10:57.078Z,117.63
2023-03-21T16:13:24.096Z,123.72
2023-03-21T16:15:54.551Z,121.03
2023-03-21T16:18:21.641Z,171.50
2023-03-21T16:20:53.027Z,176.75
2023-03-21T16:23:20.276Z,180.55
2023-03-21T16:25:55.984Z,239.75
2023-03-21T16:28:24.636Z,170.52
2023-03-21T16:30:52.003Z,184.85
2023-03-21T16:33:19.079Z,213.48
2023-03-21T16:35:46.810Z,204.60
2023-03-21T16:38:14.119Z,186.80
2023-03-21T16:40:43.388Z,170.00
2023-03-21T16:43:11.351Z,203.55
2023-03-21T16:45:38.946Z,169.20
2023-03-21T16:48:08.732Z,160.07
2023-03-21T16:50:41.274Z,150.73
2023-03-21T16:53:09.733Z,150.88
2023-03-21T16:55:40.981Z,144.60
2023-03-21T16:58:08.172Z,136.07
2023-03-21T17:00:37.426Z,126.95
2023-03-21T17:03:14.805Z,174.02
2023-03-21T17:05:42.236Z,156.18
2023-03-21T17:08:17.615Z,156.35
2023-03-21T17:10:47.145Z,187.85
2023-03-21T17:13:14.340Z,218.73
2023-03-21T17:15:44.879Z,244.27
2023-03-21T17:18:12.478Z,250.43
2023-03-21T17:20:41.747Z,215.25
2023-03-21T17:23:12.484Z,183.35
2023-03-21T17:25:39.821Z,137.93
2023-03-21T17:28:09.785Z,108.65
2023-03-21T17:30:40.172Z,80.35
2023-03-21T17:33:07.834Z,93.50
2023-03-21T17:35:35.442Z,173.07
2023-03-21T17:38:02.855Z,166.70
2023-03-21T17:40:33.526Z,246.50
2023-03-21T17:43:01.518Z,337.70
2023-03-21T17:45:29.715Z,363.25
2023-03-21T17:47:56.796Z,274.20
2023-03-21T17:50:28.001Z,240.93
2023-03-21T17:52:57.884Z,365.25
2023-03-21T17:55:26.229Z,194.27
2023-03-21T17:57:53.269Z,118.28
2023-03-21T18:00:25.144Z,106.55
2023-03-21T18:02:54.969Z,99.95
2023-03-21T18:05:22.940Z,132.57
2023-03-21T18:08:10.753Z,177.45
2023-03-21T18:10:40.139Z,164.35
2023-03-21T18:13:07.497Z,169.82
2023-03-21T18:15:38.064Z,220.85
2023-03-21T18:18:05.895Z,219.15
2023-03-21T18:23:24.851Z,199.38
2023-03-21T18:25:55.580Z,333.33
2023-03-21T18:28:22.804Z,295.23
2023-03-21T18:33:44.495Z,318.23
2023-03-21T18:36:24.033Z,296.27
2023-03-21T18:38:51.794Z,203.52
2023-03-21T18:41:19.841Z,118.85
2023-03-21T18:44:15.590Z,101.55
2023-03-21T18:46:34.564Z,89.03
2023-03-21T18:49:26.915Z,121.95
2023-03-21T18:51:49.860Z,125.80
2023-03-21T18:54:17.129Z,228.10
2023-03-21T18:57:31.700Z,230.55
2023-03-21T18:59:35.894Z,222.52
2023-03-21T19:02:04.719Z,250.00
2023-03-21T19:04:33.410Z,150.52
2023-03-21T19:07:01.436Z,118.93
2023-03-21T19:09:54.767Z,92.95
2023-03-21T19:12:20.697Z,84.60
2023-03-21T19:14:47.909Z,79.93
2023-03-21T19:18:15.357Z,102.43
2023-03-21T19:20:07.501Z,117.45
2023-03-21T19:22:37.224Z,84.47
2023-03-21T19:25:05.573Z,105.75
2023-03-21T19:27:37.403Z,104.03
2023-03-21T19:30:14.334Z,110.85
2023-03-21T19:32:43.974Z,98.18
2023-03-21T19:35:11.540Z,103.07
2023-03-21T19:37:39.166Z,90.85
2023-03-21T19:40:07.905Z,145.65
2023-03-21T19:42:40.379Z,98.68
2023-03-21T19:45:08.609Z,48.78
2023-03-21T19:47:40.298Z,39.58
2023-03-21T19:52:56.515Z,54.47
2023-03-21T19:55:27.131Z,142.90
2023-03-21T19:57:54.427Z,129.85
2023-03-21T20:00:24.756Z,74.07
2023-03-21T20:02:54.355Z,63.72
2023-03-21T20:05:22.258Z,59.00
2023-03-21T20:07:50.101Z,52.08
2023-03-21T20:10:17.362Z,50.45
2023-03-21T20:12:44.821Z,67.70
2023-03-21T20:15:19.262Z,97.13
2023-03-21T20:17:52.947Z,207.00
2023-03-21T20:20:20.264Z,244.48
2023-03-21T20:23:07.837Z,135.18
2023-03-21T20:25:38.780Z,77.95
2023-03-21T20:28:24.546Z,120.20
2023-03-21T20:31:00.392Z,184.98
2023-03-21T20:33:28.714Z,142.50
2023-03-21T20:38:52.265Z,85.65
2023-03-21T20:41:19.338Z,119.28
2023-03-21T20:44:34.327Z,106.70
2023-03-21T20:46:35.867Z,134.57
2023-03-21T20:49:06.712Z,89.75
2023-03-21T20:54:21.947Z,56.45
2023-03-21T20:56:49.083Z,85.13
2023-03-21T20:59:26.593Z,94.15
2023-03-21T21:01:58.785Z,110.60
2023-03-21T21:04:47.227Z,103.07
2023-03-21T21:07:21.873Z,44.60
2023-03-21T21:09:50.309Z,36.40
2023-03-21T21:12:19.368Z,134.77
2023-03-21T21:14:48.199Z,364.98
2023-03-21T21:20:16.358Z,161.18
2023-03-21T21:22:46.129Z,114.68
2023-03-21T21:25:26.834Z,106.78
2023-03-21T21:27:53.918Z,97.00
2023-03-21T21:30:21.662Z,141.10
2023-03-21T21:32:49.477Z,131.32
2023-03-21T21:35:19.659Z,110.70
2023-03-21T21:37:47.039Z,97.57
2023-03-21T21:40:16.717Z,89.13
2023-03-21T21:42:44.483Z,90.47
2023-03-21T21:45:13.189Z,74.03
2023-03-21T21:47:45.546Z,97.47
2023-03-21T21:50:17.364Z,79.38
2023-03-21T21:52:52.627Z,89.18
2023-03-21T21:55:20.927Z,40.22
2023-03-21T21:57:50.725Z,37.28
2023-03-21T22:00:19.771Z,50.63
2023-03-21T22:02:47.177Z,51.38
2023-03-21T22:05:14.616Z,36.20
2023-03-21T22:07:41.957Z,41.95
2023-03-21T22:10:09.590Z,53.50
2023-03-21T22:12:36.869Z,51.05
2023-03-21T22:15:07.246Z,55.10
2023-03-21T22:17:35.315Z,45.38
2023-03-21T22:20:06.485Z,39.97
2023-03-21T22:22:34.922Z,35.05
2023-03-21T22:25:06.444Z,61.88
2023-03-21T22:27:33.949Z,67.72
2023-03-21T22:30:05.385Z,72.32
2023-03-21T22:32:38.933Z,85.35
2023-03-21T22:35:08.843Z,117.85
2023-03-21T22:37:38.453Z,107.78
2023-03-21T22:40:14.410Z,92.40
2023-03-21T22:42:43.293Z,83.07
2023-03-21T22:45:13.113Z,70.75
2023-03-21T22:47:40.370Z,54.33
2023-03-21T22:50:08.433Z,45.25
2023-03-21T22:52:35.634Z,53.42
2023-03-21T22:55:03.011Z,60.22
2023-03-21T22:57:30.267Z,45.13
2023-03-21T22:59:57.596Z,46.90
2023-03-21T23:02:24.592Z,40.53
2023-03-21T23:04:51.930Z,43.83
2023-03-21T23:07:18.969Z,40.20
2023-03-21T23:09:46.372Z,131.40
2023-03-21T23:12:15.101Z,89.95
2023-03-21T23:14:42.635Z,72.47
2023-03-21T23:17:10.134Z,56.65
2023-03-21T23:19:39.304Z,48.08
2023-03-21T23:22:07.888Z,52.28
2023-03-21T23:24:35.496Z,48.92
2023-03-21T23:27:02.662Z,48.30
2023-03-21T23:29:29.977Z,45.90
2023-03-21T23:31:57.105Z,56.55
2023-03-21T23:34:24.429Z,46.72
2023-03-21T23:36:51.728Z,38.15
2023-03-21T23:39:20.242Z,38.10
2023-03-21T23:41:47.253Z,35.40
2023-03-21T23:44:15.398Z,38.85
2023-03-21T23:46:45.573Z,37.40
2023-03-21T23:49:12.881Z,41.60
2023-03-21T23:51:39.948Z,61.70
2023-03-21T23:54:07.598Z,90.18
2023-03-21T23:56:36.462Z,86.30
2023-03-21T23:59:04.276Z,74.70
